createdAt,value
2023-08-08T00:01:15.712Z,13.80
2023-08-08T00:03:42.559Z,13.70
2023-08-08T00:06:09.322Z,13.60
2023-08-08T00:08:36.093Z,13.60
2023-08-08T00:11:02.929Z,13.60
2023-08-08T00:13:29.650Z,13.60
2023-08-08T00:15:56.595Z,13.60
2023-08-08T00:18:23.481Z,13.60
2023-08-08T00:20:50.319Z,13.60
2023-08-08T00:23:17.277Z,13.70
2023-08-08T00:25:44.258Z,13.70
2023-08-08T00:28:11.013Z,13.70
2023-08-08T00:30:37.705Z,13.70
2023-08-08T00:33:04.759Z,13.70
2023-08-08T00:35:31.519Z,13.70
2023-08-08T00:37:58.230Z,13.70
2023-08-08T00:40:25.041Z,13.70
2023-08-08T00:42:51.769Z,13.50
2023-08-08T00:45:18.640Z,13.50
2023-08-08T00:47:45.978Z,13.40
2023-08-08T00:50:13.844Z,13.30
2023-08-08T00:52:42.657Z,13.20
2023-08-08T00:55:10.107Z,13.20
2023-08-08T00:57:39.337Z,13.20
2023-08-08T01:00:08.266Z,13.10
2023-08-08T01:02:35.192Z,13.10
2023-08-08T01:05:02.945Z,13.20
2023-08-08T01:07:41.518Z,13.20
2023-08-08T01:10:13.666Z,13.20
2023-08-08T01:12:45.138Z,13.20
2023-08-08T01:15:15.847Z,13.20
2023-08-08T01:17:43.631Z,13.20
2023-08-08T01:20:11.726Z,13.20
2023-08-08T01:22:50.990Z,13.20
2023-08-08T01:25:18.445Z,13.20
2023-08-08T01:27:45.874Z,13.20
2023-08-08T01:30:13.064Z,13.20
2023-08-08T01:32:39.807Z,13.10
2023-08-08T01:35:08.732Z,13.10
2023-08-08T01:37:45.683Z,13.20
2023-08-08T01:40:16.360Z,13.20
2023-08-08T01:42:44.661Z,13.20
2023-08-08T01:45:12.568Z,13.20
2023-08-08T01:47:39.423Z,13.20
2023-08-08T01:50:06.882Z,13.20
2023-08-08T01:52:33.624Z,13.10
2023-08-08T01:55:00.365Z,13.10
2023-08-08T01:57:27.151Z,13.10
2023-08-08T01:59:53.883Z,13.10
2023-08-08T02:02:20.662Z,13.10
2023-08-08T02:04:47.429Z,13.10
2023-08-08T02:07:14.277Z,13.10
2023-08-08T02:09:41.169Z,13.20
2023-08-08T02:12:08.333Z,13.20
2023-08-08T02:14:35.108Z,13.20
2023-08-08T02:17:01.829Z,13.30
2023-08-08T02:19:28.725Z,13.30
2023-08-08T02:21:55.447Z,13.30
2023-08-08T02:24:22.276Z,13.40
2023-08-08T02:26:49.708Z,13.40
2023-08-08T02:29:16.486Z,13.40
2023-08-08T02:31:43.268Z,13.50
2023-08-08T02:34:10.122Z,13.50
2023-08-08T02:36:36.889Z,13.50
2023-08-08T02:39:04.305Z,13.50
2023-08-08T02:41:31.155Z,13.50
2023-08-08T02:43:57.868Z,13.50
2023-08-08T02:46:24.654Z,13.60
2023-08-08T02:48:51.393Z,13.60
2023-08-08T02:51:18.164Z,13.60
2023-08-08T02:53:44.873Z,13.60
2023-08-08T02:56:11.674Z,13.50
2023-08-08T02:58:38.445Z,13.50
2023-08-08T03:01:05.222Z,13.40
2023-08-08T03:03:32.014Z,13.30
2023-08-08T03:05:59.307Z,13.30
2023-08-08T03:08:26.073Z,13.20
2023-08-08T03:10:52.805Z,13.20
2023-08-08T03:13:20.949Z,13.10
2023-08-08T03:15:47.708Z,13.10
2023-08-08T03:18:14.442Z,13.10
2023-08-08T03:20:41.331Z,13.00
2023-08-08T03:23:08.134Z,13.00
2023-08-08T03:25:34.910Z,13.00
2023-08-08T03:28:01.849Z,12.90
2023-08-08T03:30:28.618Z,12.90
2023-08-08T03:32:55.422Z,12.90
2023-08-08T03:35:22.257Z,12.90
2023-08-08T03:37:49.037Z,12.90
2023-08-08T03:40:16.099Z,12.90
2023-08-08T03:42:42.944Z,12.90
2023-08-08T03:45:10.232Z,12.80
2023-08-08T03:47:37.093Z,12.70
2023-08-08T03:50:05.596Z,12.70
2023-08-08T03:52:34.139Z,12.70
2023-08-08T03:55:00.908Z,12.60
2023-08-08T03:57:27.703Z,12.60
2023-08-08T03:59:54.387Z,12.60
2023-08-08T04:02:21.180Z,12.60
2023-08-08T04:04:47.909Z,12.60
2023-08-08T04:07:14.922Z,12.70
2023-08-08T04:09:41.933Z,12.70
2023-08-08T04:12:09.204Z,12.70
2023-08-08T04:14:35.905Z,12.80
2023-08-08T04:17:04.164Z,12.80
2023-08-08T04:19:31.080Z,12.90
2023-08-08T04:21:57.985Z,13.00
2023-08-08T04:24:24.983Z,13.10
2023-08-08T04:26:51.728Z,13.20
2023-08-08T04:29:18.429Z,13.20
2023-08-08T04:31:45.239Z,13.20
2023-08-08T04:34:11.997Z,13.30
2023-08-08T04:36:38.776Z,13.40
2023-08-08T04:39:05.559Z,13.30
2023-08-08T04:41:32.283Z,13.30
2023-08-08T04:43:59.016Z,13.40
2023-08-08T04:46:25.867Z,13.40
2023-08-08T04:48:52.697Z,13.40
2023-08-08T04:51:20.482Z,13.40
2023-08-08T04:53:47.203Z,13.40
2023-08-08T04:56:14.028Z,13.40
2023-08-08T04:58:40.780Z,13.30
2023-08-08T05:01:10.048Z,13.20
2023-08-08T05:03:36.972Z,13.20
2023-08-08T05:06:04.189Z,13.20
2023-08-08T05:08:30.950Z,13.30
2023-08-08T05:10:58.057Z,13.30
2023-08-08T05:13:24.847Z,13.20
2023-08-08T05:15:51.575Z,13.20
2023-08-08T05:18:18.264Z,13.30
2023-08-08T05:20:45.030Z,13.30
2023-08-08T05:23:11.756Z,13.30
2023-08-08T05:25:38.475Z,13.30
2023-08-08T05:28:05.784Z,13.30
2023-08-08T05:30:32.643Z,13.30
2023-08-08T05:32:59.430Z,13.20
2023-08-08T05:35:26.225Z,13.30
2023-08-08T05:37:55.830Z,13.30
2023-08-08T05:40:22.588Z,13.30
2023-08-08T05:42:49.341Z,13.40
2023-08-08T05:45:16.174Z,13.40
2023-08-08T05:47:42.943Z,13.50
2023-08-08T05:50:10.193Z,13.50
2023-08-08T05:52:37.110Z,13.60
2023-08-08T05:55:04.191Z,13.60
2023-08-08T05:57:30.950Z,13.50
2023-08-08T05:59:58.717Z,13.50
2023-08-08T06:02:25.957Z,13.60
2023-08-08T06:04:52.881Z,13.60
2023-08-08T06:07:20.609Z,13.70
2023-08-08T06:09:47.435Z,13.80
2023-08-08T06:12:14.137Z,13.80
2023-08-08T06:14:40.985Z,13.90
2023-08-08T06:17:07.761Z,13.90
2023-08-08T06:19:34.561Z,13.90
2023-08-08T06:22:01.532Z,13.90
2023-08-08T06:24:28.609Z,14.00
2023-08-08T06:26:55.437Z,14.00
2023-08-08T06:29:22.409Z,14.00
2023-08-08T06:31:49.259Z,13.90
2023-08-08T06:34:16.328Z,14.00
2023-08-08T06:36:43.132Z,14.00
2023-08-08T06:39:10.406Z,14.10
2023-08-08T06:41:37.199Z,14.20
2023-08-08T06:44:04.111Z,14.30
2023-08-08T06:46:30.932Z,14.30
2023-08-08T06:48:59.899Z,14.40
2023-08-08T06:51:27.281Z,14.50
2023-08-08T06:53:54.145Z,14.60
2023-08-08T06:56:20.868Z,14.60
2023-08-08T06:58:47.691Z,14.60
2023-08-08T07:01:14.980Z,14.60
2023-08-08T07:03:42.214Z,14.70
2023-08-08T07:06:09.155Z,14.60
2023-08-08T07:08:40.387Z,14.70
2023-08-08T07:11:07.569Z,14.80
2023-08-08T07:13:34.560Z,14.90
2023-08-08T07:16:01.950Z,14.70
2023-08-08T07:18:29.408Z,15.10
2023-08-08T07:20:57.687Z,15.10
2023-08-08T07:23:24.723Z,15.20
2023-08-08T07:25:51.865Z,15.30
2023-08-08T07:28:19.003Z,15.40
2023-08-08T07:30:45.915Z,15.40
2023-08-08T07:33:12.770Z,15.50
2023-08-08T07:35:39.523Z,15.50
2023-08-08T07:38:06.581Z,15.60
2023-08-08T07:40:33.408Z,15.60
2023-08-08T07:43:00.385Z,15.70
2023-08-08T07:45:27.200Z,15.80
2023-08-08T07:47:54.021Z,15.90
2023-08-08T07:50:20.816Z,16.00
2023-08-08T07:52:47.571Z,16.00
2023-08-08T07:55:14.324Z,16.20
2023-08-08T07:57:41.162Z,16.30
2023-08-08T08:00:12.760Z,16.40
2023-08-08T08:02:41.211Z,16.40
2023-08-08T08:05:09.145Z,16.30
2023-08-08T08:07:36.811Z,16.30
2023-08-08T08:10:10.099Z,16.40
2023-08-08T08:12:37.399Z,16.50
2023-08-08T08:15:05.490Z,16.60
2023-08-08T08:17:32.593Z,16.60
2023-08-08T08:19:59.811Z,16.50
2023-08-08T08:22:26.598Z,16.60
2023-08-08T08:24:53.392Z,16.70
2023-08-08T08:27:20.181Z,16.80
2023-08-08T08:29:46.919Z,16.90
2023-08-08T08:32:13.731Z,17.00
2023-08-08T08:34:40.712Z,17.10
2023-08-08T08:37:07.441Z,17.10
2023-08-08T08:39:34.211Z,17.10
2023-08-08T08:42:04.420Z,17.20
2023-08-08T08:44:33.090Z,17.20
2023-08-08T08:47:04.742Z,17.40
2023-08-08T08:49:32.464Z,17.40
2023-08-08T08:52:06.153Z,17.30
2023-08-08T08:54:34.087Z,17.50
2023-08-08T08:57:01.063Z,17.60
2023-08-08T08:59:27.804Z,17.60
2023-08-08T09:01:56.113Z,17.60
2023-08-08T09:04:23.633Z,17.70
2023-08-08T09:06:51.815Z,17.60
2023-08-08T09:09:22.500Z,17.70
2023-08-08T09:11:51.272Z,17.80
2023-08-08T09:14:22.907Z,18.00
2023-08-08T09:16:51.133Z,18.00
2023-08-08T09:19:21.402Z,18.00
2023-08-08T09:21:49.165Z,17.80
2023-08-08T09:24:16.369Z,17.80
2023-08-08T09:26:45.835Z,17.80
2023-08-08T09:29:14.359Z,17.90
2023-08-08T09:31:41.812Z,18.00
2023-08-08T09:34:08.737Z,18.00
2023-08-08T09:36:36.620Z,18.00
2023-08-08T09:39:03.905Z,18.00
2023-08-08T09:41:34.870Z,18.00
2023-08-08T09:44:02.142Z,17.90
2023-08-08T09:46:33.248Z,17.80
2023-08-08T09:49:00.475Z,18.00
2023-08-08T09:51:28.395Z,17.90
2023-08-08T09:53:56.239Z,17.90
2023-08-08T09:56:27.017Z,17.90
2023-08-08T09:58:54.417Z,17.90
2023-08-08T10:01:22.179Z,18.10
2023-08-08T10:03:52.309Z,18.20
2023-08-08T10:06:19.184Z,18.30
2023-08-08T10:08:46.901Z,18.40
2023-08-08T10:11:15.716Z,18.40
2023-08-08T10:13:50.258Z,18.30
2023-08-08T10:16:19.252Z,18.20
2023-08-08T10:18:55.531Z,18.10
2023-08-08T10:21:23.958Z,18.10
2023-08-08T10:23:51.156Z,18.10
2023-08-08T10:26:21.236Z,18.20
2023-08-08T10:29:00.108Z,18.30
2023-08-08T10:31:28.037Z,18.30
2023-08-08T10:34:06.078Z,18.30
2023-08-08T10:36:53.572Z,18.40
2023-08-08T10:39:22.225Z,18.50
2023-08-08T10:41:50.786Z,18.60
2023-08-08T10:44:26.826Z,18.60
2023-08-08T10:46:56.041Z,18.50
2023-08-08T10:49:24.107Z,18.50
2023-08-08T10:51:52.837Z,18.50
2023-08-08T10:54:28.254Z,18.60
2023-08-08T10:56:59.813Z,18.60
2023-08-08T10:59:39.056Z,18.60
2023-08-08T11:02:06.430Z,18.50
2023-08-08T11:04:34.029Z,18.60
2023-08-08T11:07:02.504Z,18.80
2023-08-08T11:09:29.481Z,18.90
2023-08-08T11:11:57.661Z,18.90
2023-08-08T11:14:24.709Z,18.90
2023-08-08T11:16:52.729Z,19.00
2023-08-08T11:19:20.791Z,18.90
2023-08-08T11:21:48.998Z,18.90
2023-08-08T11:24:16.601Z,19.00
2023-08-08T11:26:46.250Z,19.00
2023-08-08T11:29:13.334Z,19.10
2023-08-08T11:31:40.300Z,19.10
2023-08-08T11:34:07.196Z,19.10
2023-08-08T11:36:35.995Z,19.10
2023-08-08T11:39:11.848Z,19.10
2023-08-08T11:41:39.714Z,19.20
2023-08-08T11:44:07.417Z,19.20
2023-08-08T11:46:34.443Z,19.30
2023-08-08T11:49:08.092Z,19.20
2023-08-08T11:51:38.075Z,19.30
2023-08-08T11:54:06.680Z,19.20
2023-08-08T11:56:37.868Z,19.30
2023-08-08T11:59:05.660Z,19.30
2023-08-08T12:01:33.909Z,19.20
2023-08-08T12:04:08.026Z,19.10
2023-08-08T12:06:40.283Z,19.20
2023-08-08T12:09:07.544Z,19.30
2023-08-08T12:11:40.376Z,19.30
2023-08-08T12:14:10.699Z,19.30
2023-08-08T12:16:39.723Z,19.30
2023-08-08T12:19:10.791Z,19.30
2023-08-08T12:21:37.651Z,19.30
2023-08-08T12:24:04.576Z,19.40
2023-08-08T12:26:31.415Z,19.50
2023-08-08T12:28:58.249Z,19.40
2023-08-08T12:31:25.092Z,19.50
2023-08-08T12:33:53.333Z,19.50
2023-08-08T12:36:21.469Z,19.50
2023-08-08T12:38:48.394Z,19.50
2023-08-08T12:41:15.339Z,19.70
2023-08-08T12:43:42.183Z,19.80
2023-08-08T12:46:09.099Z,19.90
2023-08-08T12:48:35.971Z,20.00
2023-08-08T12:51:02.714Z,20.10
2023-08-08T12:53:29.476Z,20.10
2023-08-08T12:55:56.527Z,20.20
2023-08-08T12:58:26.803Z,20.10
2023-08-08T13:00:53.773Z,20.10
2023-08-08T13:03:21.521Z,20.20
2023-08-08T13:05:48.634Z,20.10
2023-08-08T13:08:15.925Z,20.10
2023-08-08T13:10:43.156Z,20.10
2023-08-08T13:13:10.555Z,20.20
2023-08-08T13:15:37.474Z,20.20
2023-08-08T13:18:04.862Z,20.10
2023-08-08T13:20:31.744Z,20.10
2023-08-08T13:22:58.531Z,20.10
2023-08-08T13:25:25.361Z,20.10
2023-08-08T13:27:52.213Z,20.10
2023-08-08T13:30:19.558Z,20.00
2023-08-08T13:32:46.475Z,20.10
2023-08-08T13:35:13.380Z,20.00
2023-08-08T13:37:40.153Z,20.00
2023-08-08T13:40:07.695Z,20.10
2023-08-08T13:42:34.729Z,20.00
2023-08-08T13:45:02.155Z,20.00
2023-08-08T13:47:29.059Z,20.10
2023-08-08T13:49:55.934Z,20.30
2023-08-08T13:52:22.680Z,20.50
2023-08-08T13:54:49.473Z,20.60
2023-08-08T13:57:17.332Z,20.70
2023-08-08T13:59:44.370Z,20.80
2023-08-08T14:02:11.168Z,20.90
2023-08-08T14:04:39.956Z,21.10
2023-08-08T14:07:08.186Z,21.10
2023-08-08T14:09:35.002Z,21.20
2023-08-08T14:12:02.392Z,21.00
2023-08-08T14:14:29.374Z,20.70
2023-08-08T14:16:56.517Z,20.70
2023-08-08T14:19:23.417Z,20.80
2023-08-08T14:21:50.761Z,20.70
2023-08-08T14:24:17.643Z,20.80
2023-08-08T14:26:45.114Z,20.70
2023-08-08T14:29:11.852Z,20.70
2023-08-08T14:32:01.353Z,20.70
2023-08-08T14:34:33.432Z,20.70
2023-08-08T14:37:01.755Z,20.80
2023-08-08T14:39:28.926Z,20.60
2023-08-08T14:41:56.554Z,20.40
2023-08-08T14:44:23.514Z,20.30
2023-08-08T14:46:50.262Z,20.20
2023-08-08T14:49:18.420Z,20.20
2023-08-08T14:51:45.233Z,20.20
2023-08-08T14:54:12.017Z,20.40
2023-08-08T14:56:38.815Z,20.60
2023-08-08T14:59:05.671Z,20.60
2023-08-08T15:01:32.600Z,20.60
2023-08-08T15:03:59.465Z,20.70
2023-08-08T15:06:26.249Z,20.80
2023-08-08T15:08:53.053Z,20.70
2023-08-08T15:11:19.819Z,20.60
2023-08-08T15:13:46.576Z,20.60
2023-08-08T15:16:13.550Z,20.50
2023-08-08T15:18:40.299Z,20.60
2023-08-08T15:21:07.706Z,20.50
2023-08-08T15:23:34.629Z,20.50
2023-08-08T15:26:02.187Z,20.50
2023-08-08T15:28:29.066Z,20.50
2023-08-08T15:30:58.720Z,20.50
2023-08-08T15:33:25.559Z,20.50
2023-08-08T15:35:52.385Z,20.60
2023-08-08T15:38:19.214Z,20.70
2023-08-08T15:40:46.174Z,20.80
2023-08-08T15:43:14.192Z,20.80
2023-08-08T15:45:41.261Z,20.80
2023-08-08T15:48:08.065Z,20.90
2023-08-08T15:50:34.877Z,20.80
2023-08-08T15:53:02.621Z,20.90
2023-08-08T15:55:29.489Z,20.80
2023-08-08T15:57:56.275Z,20.60
2023-08-08T16:00:23.187Z,20.60
2023-08-08T16:02:50.257Z,20.60
2023-08-08T16:05:17.246Z,20.60
2023-08-08T16:07:44.091Z,20.60
2023-08-08T16:10:11.217Z,20.50
2023-08-08T16:12:38.357Z,20.50
2023-08-08T16:15:05.497Z,20.40
2023-08-08T16:17:32.555Z,20.40
2023-08-08T16:20:00.280Z,20.40
2023-08-08T16:22:27.719Z,20.50
2023-08-08T16:24:54.606Z,20.50
2023-08-08T16:27:21.364Z,20.50
2023-08-08T16:29:48.255Z,20.50
2023-08-08T16:32:15.018Z,20.60
2023-08-08T16:34:41.863Z,20.70
2023-08-08T16:37:08.792Z,20.70
2023-08-08T16:39:35.649Z,20.70
2023-08-08T16:42:02.664Z,20.70
2023-08-08T16:44:29.671Z,20.60
2023-08-08T16:46:56.522Z,20.60
2023-08-08T16:49:23.458Z,20.60
2023-08-08T16:51:50.512Z,20.60
2023-08-08T16:54:19.754Z,20.60
2023-08-08T16:56:46.475Z,20.60
2023-08-08T16:59:13.344Z,20.70
2023-08-08T17:01:44.220Z,20.70
2023-08-08T17:04:16.154Z,20.70
2023-08-08T17:06:43.721Z,20.90
2023-08-08T17:09:12.443Z,20.80
2023-08-08T17:11:39.414Z,20.80
2023-08-08T17:14:06.711Z,20.80
2023-08-08T17:16:33.687Z,20.80
2023-08-08T17:19:01.614Z,20.80
2023-08-08T17:21:28.577Z,20.70
2023-08-08T17:23:55.362Z,20.70
2023-08-08T17:26:22.417Z,20.60
2023-08-08T17:28:51.080Z,20.50
2023-08-08T17:31:19.442Z,20.40
2023-08-08T17:33:46.244Z,20.20
2023-08-08T17:36:13.283Z,20.20
2023-08-08T17:38:40.208Z,20.10
2023-08-08T17:41:07.041Z,20.10
2023-08-08T17:43:34.077Z,20.00
2023-08-08T17:46:00.970Z,20.00
2023-08-08T17:48:27.766Z,20.00
2023-08-08T17:50:56.078Z,20.00
2023-08-08T17:53:22.991Z,19.90
2023-08-08T17:55:52.937Z,19.90
2023-08-08T17:58:19.736Z,19.90
2023-08-08T18:00:46.482Z,19.90
2023-08-08T18:03:13.399Z,19.80
2023-08-08T18:05:40.918Z,19.80
2023-08-08T18:08:07.871Z,19.70
2023-08-08T18:10:36.383Z,19.80
2023-08-08T18:13:04.490Z,19.80
2023-08-08T18:15:31.294Z,19.70
2023-08-08T18:18:01.287Z,19.70
2023-08-08T18:20:28.203Z,19.60
2023-08-08T18:22:54.967Z,19.60
2023-08-08T18:25:21.747Z,19.60
2023-08-08T18:27:48.545Z,19.60
2023-08-08T18:30:17.050Z,19.50
2023-08-08T18:32:44.634Z,19.50
2023-08-08T18:35:11.636Z,19.50
2023-08-08T18:37:39.538Z,19.40
2023-08-08T18:40:07.848Z,19.40
2023-08-08T18:42:35.544Z,19.40
2023-08-08T18:45:02.791Z,19.40
2023-08-08T18:47:29.681Z,19.30
2023-08-08T18:49:56.582Z,19.30
2023-08-08T18:52:23.361Z,19.30
2023-08-08T18:54:52.923Z,19.30
2023-08-08T18:57:19.702Z,19.30
2023-08-08T18:59:46.654Z,19.20
2023-08-08T19:02:13.470Z,19.20
2023-08-08T19:04:40.310Z,19.20
2023-08-08T19:07:07.179Z,19.20
2023-08-08T19:09:34.143Z,19.20
2023-08-08T19:12:01.746Z,19.20
2023-08-08T19:14:29.082Z,19.10
2023-08-08T19:16:55.866Z,19.10
2023-08-08T19:19:22.676Z,19.10
2023-08-08T19:21:49.689Z,19.10
2023-08-08T19:24:17.428Z,19.10
2023-08-08T19:26:44.788Z,19.00
2023-08-08T19:29:11.645Z,19.00
2023-08-08T19:31:38.440Z,19.00
2023-08-08T19:34:07.450Z,18.90
2023-08-08T19:36:35.797Z,18.90
2023-08-08T19:39:03.188Z,18.90
2023-08-08T19:41:30.018Z,19.00
2023-08-08T19:43:56.873Z,19.00
2023-08-08T19:46:23.739Z,18.90
2023-08-08T19:48:50.642Z,18.90
2023-08-08T19:51:18.053Z,18.90
2023-08-08T19:53:45.319Z,18.90
2023-08-08T19:56:12.279Z,18.90
2023-08-08T19:58:39.145Z,18.90
2023-08-08T20:01:06.056Z,18.90
2023-08-08T20:03:33.753Z,18.80
2023-08-08T20:06:00.845Z,18.70
2023-08-08T20:08:27.615Z,18.70
2023-08-08T20:10:54.563Z,18.70
2023-08-08T20:13:21.508Z,18.60
2023-08-08T20:15:48.273Z,18.60
2023-08-08T20:18:15.138Z,18.60
2023-08-08T20:20:41.899Z,18.60
2023-08-08T20:23:08.796Z,18.60
2023-08-08T20:25:39.022Z,18.50
2023-08-08T20:28:07.501Z,18.50
2023-08-08T20:30:35.997Z,18.50
2023-08-08T20:33:03.341Z,18.40
2023-08-08T20:35:31.647Z,18.40
2023-08-08T20:37:58.960Z,18.40
2023-08-08T20:40:25.737Z,18.40
2023-08-08T20:42:53.796Z,18.30
2023-08-08T20:45:20.574Z,18.20
2023-08-08T20:47:47.361Z,18.20
2023-08-08T20:50:14.344Z,18.10
2023-08-08T20:52:41.262Z,18.10
2023-08-08T20:55:08.480Z,18.00
2023-08-08T20:57:35.987Z,18.00
2023-08-08T21:00:03.500Z,18.00
2023-08-08T21:05:14.567Z,18.00
2023-08-08T21:07:41.362Z,18.10
2023-08-08T21:10:08.626Z,17.90
2023-08-08T21:12:35.435Z,18.00
2023-08-08T21:15:02.207Z,17.90
2023-08-08T21:17:28.994Z,17.80
2023-08-08T21:19:58.401Z,17.80
2023-08-08T21:22:25.230Z,17.80
2023-08-08T21:24:52.000Z,17.80
2023-08-08T21:27:19.200Z,17.80
2023-08-08T21:29:46.091Z,17.80
2023-08-08T21:32:13.181Z,17.70
2023-08-08T21:34:39.942Z,17.80
2023-08-08T21:37:06.714Z,17.60
2023-08-08T21:39:33.456Z,17.60
2023-08-08T21:42:00.272Z,17.60
2023-08-08T21:44:27.089Z,17.60
2023-08-08T21:46:54.024Z,17.60
2023-08-08T21:49:20.786Z,17.50
2023-08-08T21:51:47.741Z,17.60
2023-08-08T21:54:15.444Z,17.60
2023-08-08T21:56:42.566Z,17.60
2023-08-08T21:59:09.458Z,17.50
2023-08-08T22:01:36.663Z,17.50
2023-08-08T22:04:04.684Z,17.50
2023-08-08T22:06:31.500Z,17.40
2023-08-08T22:08:59.027Z,17.40
2023-08-08T22:11:26.111Z,17.40
2023-08-08T22:13:52.869Z,17.40
2023-08-08T22:16:19.799Z,17.40
2023-08-08T22:18:46.581Z,17.30
2023-08-08T22:21:13.354Z,17.40
2023-08-08T22:23:40.109Z,17.30
2023-08-08T22:26:06.785Z,17.30
2023-08-08T22:28:33.471Z,17.30
2023-08-08T22:31:00.221Z,17.30
2023-08-08T22:33:27.033Z,17.20
2023-08-08T22:35:53.779Z,17.20
2023-08-08T22:38:20.485Z,17.30
2023-08-08T22:40:48.222Z,17.20
2023-08-08T22:43:15.152Z,17.20
2023-08-08T22:45:41.924Z,17.30
2023-08-08T22:48:08.718Z,17.20
2023-08-08T22:50:37.186Z,17.20
2023-08-08T22:53:04.465Z,17.20
2023-08-08T22:55:31.262Z,17.30
2023-08-08T22:57:58.112Z,17.30
2023-08-08T23:00:24.942Z,17.30
2023-08-08T23:02:52.558Z,17.30
2023-08-08T23:05:20.037Z,17.30
2023-08-08T23:07:47.019Z,17.30
2023-08-08T23:10:13.771Z,17.30
2023-08-08T23:12:40.545Z,17.30
2023-08-08T23:15:07.682Z,17.30
2023-08-08T23:17:34.485Z,17.30
2023-08-08T23:20:01.294Z,17.30
2023-08-08T23:22:28.068Z,17.50
2023-08-08T23:24:54.783Z,17.30
2023-08-08T23:27:21.591Z,17.30
2023-08-08T23:29:50.943Z,17.30
2023-08-08T23:32:17.639Z,17.30
2023-08-08T23:34:44.470Z,17.30
2023-08-08T23:37:19.903Z,17.30
2023-08-08T23:39:47.774Z,17.20
2023-08-08T23:42:15.863Z,17.20
2023-08-08T23:44:42.694Z,17.20
2023-08-08T23:47:09.484Z,17.10
2023-08-08T23:49:36.245Z,17.00
2023-08-08T23:52:02.967Z,17.00
2023-08-08T23:54:29.657Z,17.00
2023-08-08T23:56:56.618Z,17.00
2023-08-08T23:59:23.322Z,16.90
